Time,TemperatureF,DewpointF,PressureIn,WindDirection,WindDirectionDegrees,WindSpeedMPH,WindSpeedGustMPH,Humidity,HourlyPrecipIn,Conditions,Clouds,dailyrainin,SoftwareType,DateUTC
2013-01-12 00:02:00,40.3,34.0,32.13,SE,130,0.0,0.0,78,0.00,NA,NA,-99.99,wxupload 3.4,2013-01-12 05:02:00,
2013-01-12 00:05:00,39.9,33.6,32.13,SE,130,0.0,0.0,78,0.00,NA,NA,-99.99,wxupload 3.4,2013-01-12 05:05:00,
2013-01-12 00:11:00,40.1,33.8,32.13,SE,130,0.0,0.0,78,0.00,NA,NA,-99.99,wxupload 3.4,2013-01-12 05:11:00,
2013-01-12 00:18:00,39.9,33.6,32.13,SE,130,0.0,0.0,78,0.00,NA,NA,-99.99,wxupload 3.4,2013-01-12 05:18:00,
2013-01-12 00:21:00,39.9,33.6,32.13,SE,130,0.0,0.0,78,0.00,NA,NA,-99.99,wxupload 3.4,2013-01-12 05:21:00,
2013-01-12 00:27:00,39.7,33.5,32.13,SE,130,0.0,0.0,78,0.00,NA,NA,-99.99,wxupload 3.4,2013-01-12 05:27:00,
2013-01-12 00:33:00,39.9,34.0,32.13,SE,130,0.0,0.0,79,0.00,NA,NA,-99.99,wxupload 3.4,2013-01-12 05:33:00,
2013-01-12 00:39:00,39.9,34.0,32.13,SE,130,0.0,0.0,79,0.00,NA,NA,-99.99,wxupload 3.4,2013-01-12 05:39:00,
2013-01-12 00:46:00,40.3,34.3,32.13,SE,130,0.0,0.0,79,0.00,NA,NA,-99.99,wxupload 3.4,2013-01-12 05:46:00,
2013-01-12 00:51:00,40.3,34.3,32.13,SE,130,0.0,0.0,79,0.00,NA,NA,-99.99,wxupload 3.4,2013-01-12 05:51:00,
2013-01-12 00:57:00,40.1,34.1,32.13,SE,130,0.0,0.0,79,0.00,NA,NA,-99.99,wxupload 3.4,2013-01-12 05:57:00,
2013-01-12 01:03:00,40.3,34.3,32.13,SE,130,0.0,0.0,79,0.00,NA,NA,-99.99,wxupload 3.4,2013-01-12 06:03:00,
2013-01-12 01:09:00,40.1,34.1,32.13,SE,130,0.0,0.0,79,0.00,NA,NA,-99.99,wxupload 3.4,2013-01-12 06:09:00,
2013-01-12 01:16:00,39.9,34.0,32.13,SE,130,0.0,0.0,79,0.00,NA,NA,-99.99,wxupload 3.4,2013-01-12 06:16:00,
2013-01-12 01:21:00,39.9,34.0,32.13,SE,130,0.0,0.0,79,0.00,NA,NA,-99.99,wxupload 3.4,2013-01-12 06:21:00,
2013-01-12 01:28:00,39.7,33.8,32.13,SE,130,0.0,0.0,79,0.00,NA,NA,-99.99,wxupload 3.4,2013-01-12 06:28:00,
2013-01-12 01:33:00,39.7,33.8,32.13,SE,130,0.0,0.0,79,0.00,NA,NA,-99.99,wxupload 3.4,2013-01-12 06:33:00,
2013-01-12 01:39:00,39.7,34.1,32.13,SE,130,0.0,0.0,80,0.00,NA,NA,-99.99,wxupload 3.4,2013-01-12 06:39:00,
2013-01-12 01:46:00,39.7,34.1,32.13,SE,130,0.0,0.0,80,0.00,NA,NA,-99.99,wxupload 3.4,2013-01-12 06:46:00,
2013-01-12 01:51:00,39.9,34.3,32.13,SE,130,0.0,0.0,80,0.00,NA,NA,-99.99,wxupload 3.4,2013-01-12 06:51:00,
2013-01-12 01:57:00,39.9,34.3,32.13,SE,130,0.0,0.0,80,0.00,NA,NA,-99.99,wxupload 3.4,2013-01-12 06:57:00,
2013-01-12 02:03:00,39.9,34.3,32.13,SE,130,0.0,0.0,80,0.00,NA,NA,-99.99,wxupload 3.4,2013-01-12 07:03:00,
2013-01-12 02:09:00,39.9,34.3,32.13,SE,130,0.0,0.0,80,0.00,NA,NA,-99.99,wxupload 3.4,2013-01-12 07:09:00,
2013-01-12 02:16:00,39.9,34.3,32.13,SE,130,0.0,0.0,80,0.00,NA,NA,-99.99,wxupload 3.4,2013-01-12 07:16:00,
2013-01-12 02:21:00,39.9,34.3,32.16,SE,130,0.0,0.0,80,0.00,NA,NA,-99.99,wxupload 3.4,2013-01-12 07:21:00,
2013-01-12 02:27:00,39.9,34.3,32.16,SE,130,0.0,0.0,80,0.00,NA,NA,-99.99,wxupload 3.4,2013-01-12 07:27:00,
2013-01-12 02:33:00,40.1,34.8,32.16,SE,130,0.0,0.0,81,0.00,NA,NA,-99.99,wxupload 3.4,2013-01-12 07:33:00,
2013-01-12 02:39:00,39.9,34.3,32.16,SE,130,0.0,0.0,80,0.00,NA,NA,-99.99,wxupload 3.4,2013-01-12 07:39:00,
2013-01-12 02:46:00,39.9,34.6,32.16,SE,130,0.0,0.0,81,0.00,NA,NA,-99.99,wxupload 3.4,2013-01-12 07:46:00,
2013-01-12 02:51:00,39.9,34.3,32.16,SE,130,0.0,0.0,80,0.00,NA,NA,-99.99,wxupload 3.4,2013-01-12 07:51:00,
2013-01-12 02:58:00,39.9,34.6,32.16,SE,130,0.0,0.0,81,0.00,NA,NA,-99.99,wxupload 3.4,2013-01-12 07:58:00,
2013-01-12 03:03:00,39.9,34.6,32.16,SE,130,0.0,0.0,81,0.00,NA,NA,-99.99,wxupload 3.4,2013-01-12 08:03:00,
2013-01-12 03:09:00,39.9,34.6,32.16,SE,130,0.0,0.0,81,0.00,NA,NA,-99.99,wxupload 3.4,2013-01-12 08:09:00,
2013-01-12 03:16:00,40.1,34.8,32.16,SE,130,0.0,0.0,81,0.00,NA,NA,-99.99,wxupload 3.4,2013-01-12 08:16:00,
2013-01-12 03:21:00,40.3,34.9,32.16,SE,130,0.0,0.0,81,0.00,NA,NA,-99.99,wxupload 3.4,2013-01-12 08:21:00,
2013-01-12 03:28:00,40.3,34.9,32.16,SE,130,0.0,0.0,81,0.00,NA,NA,-99.99,wxupload 3.4,2013-01-12 08:28:00,
2013-01-12 03:33:00,39.9,34.6,32.13,SE,130,0.0,0.0,81,0.00,NA,NA,-99.99,wxupload 3.4,2013-01-12 08:33:00,
2013-01-12 03:40:00,40.1,34.8,32.13,SE,130,0.0,0.0,81,0.00,NA,NA,-99.99,wxupload 3.4,2013-01-12 08:40:00,
2013-01-12 03:45:00,40.1,34.8,32.13,SE,130,0.0,0.0,81,0.00,NA,NA,-99.99,wxupload 3.4,2013-01-12 08:45:00,
2013-01-12 03:51:00,40.1,34.8,32.13,SE,130,0.0,0.0,81,0.00,NA,NA,-99.99,wxupload 3.4,2013-01-12 08:51:00,
2013-01-12 03:58:00,40.1,35.1,32.13,SE,130,0.0,0.0,82,0.00,NA,NA,-99.99,wxupload 3.4,2013-01-12 08:58:00,
2013-01-12 04:03:00,40.1,35.1,32.13,SE,130,0.0,0.0,82,0.00,NA,NA,-99.99,wxupload 3.4,2013-01-12 09:03:00,
2013-01-12 04:10:00,40.1,35.1,32.13,SE,130,0.0,0.0,82,0.00,NA,NA,-99.99,wxupload 3.4,2013-01-12 09:10:00,
2013-01-12 04:15:00,39.9,34.6,32.13,SE,130,0.0,0.0,81,0.00,NA,NA,-99.99,wxupload 3.4,2013-01-12 09:15:00,
2013-01-12 04:21:00,39.9,34.9,32.13,SE,130,0.0,0.0,82,0.00,NA,NA,-99.99,wxupload 3.4,2013-01-12 09:21:00,
2013-01-12 04:27:00,40.1,35.1,32.13,SE,130,0.0,0.0,82,0.00,NA,NA,-99.99,wxupload 3.4,2013-01-12 09:27:00,
2013-01-12 04:33:00,40.1,35.1,32.13,SE,130,0.0,0.0,82,0.00,NA,NA,-99.99,wxupload 3.4,2013-01-12 09:33:00,
2013-01-12 04:40:00,40.1,35.1,32.13,SE,130,0.0,0.0,82,0.00,NA,NA,-99.99,wxupload 3.4,2013-01-12 09:40:00,
2013-01-12 04:45:00,40.3,35.2,32.13,SE,130,0.0,0.0,82,0.00,NA,NA,-99.99,wxupload 3.4,2013-01-12 09:45:00,
2013-01-12 04:51:00,40.1,35.1,32.13,SE,130,0.0,0.0,82,0.00,NA,NA,-99.99,wxupload 3.4,2013-01-12 09:51:00,
2013-01-12 04:57:00,40.3,35.2,32.13,SE,130,0.0,0.0,82,0.00,NA,NA,-99.99,wxupload 3.4,2013-01-12 09:57:00,
2013-01-12 05:03:00,39.9,34.9,32.13,SE,130,0.0,0.0,82,0.00,NA,NA,-99.99,wxupload 3.4,2013-01-12 10:03:00,
2013-01-12 05:10:00,40.1,35.1,32.13,SE,130,0.0,0.0,82,0.00,NA,NA,-99.99,wxupload 3.4,2013-01-12 10:10:00,
2013-01-12 05:15:00,40.1,35.1,32.13,SE,130,0.0,0.0,82,0.00,NA,NA,-99.99,wxupload 3.4,2013-01-12 10:15:00,
2013-01-12 05:22:00,39.9,34.9,32.13,SE,130,0.0,0.0,82,0.00,NA,NA,-99.99,wxupload 3.4,2013-01-12 10:22:00,
2013-01-12 05:27:00,39.9,34.9,32.13,SE,130,0.0,0.0,82,0.00,NA,NA,-99.99,wxupload 3.4,2013-01-12 10:27:00,
2013-01-12 05:33:00,39.9,34.9,32.16,SE,130,0.0,0.0,82,0.00,NA,NA,-99.99,wxupload 3.4,2013-01-12 10:33:00,
2013-01-12 05:40:00,39.9,35.2,32.16,SE,130,0.0,0.0,83,0.00,NA,NA,-99.99,wxupload 3.4,2013-01-12 10:40:00,
2013-01-12 05:45:00,39.9,35.2,32.16,SE,130,0.0,0.0,83,0.00,NA,NA,-99.99,wxupload 3.4,2013-01-12 10:45:00,
2013-01-12 05:52:00,40.1,35.4,32.16,SE,130,0.0,0.0,83,0.00,NA,NA,-99.99,wxupload 3.4,2013-01-12 10:52:00,
2013-01-12 05:57:00,40.1,35.4,32.16,SE,130,0.0,0.0,83,0.00,NA,NA,-99.99,wxupload 3.4,2013-01-12 10:57:00,
2013-01-12 06:03:00,40.1,35.4,32.16,SE,130,0.0,0.0,83,0.00,NA,NA,-99.99,wxupload 3.4,2013-01-12 11:03:00,
2013-01-12 06:10:00,40.1,35.4,32.16,SE,130,0.0,0.0,83,0.00,NA,NA,-99.99,wxupload 3.4,2013-01-12 11:10:00,
2013-01-12 06:15:00,39.9,35.2,32.16,SE,130,0.0,0.0,83,0.00,NA,NA,-99.99,wxupload 3.4,2013-01-12 11:15:00,
2013-01-12 06:22:00,39.9,35.2,32.16,SE,130,0.0,0.0,83,0.00,NA,NA,-99.99,wxupload 3.4,2013-01-12 11:22:00,
2013-01-12 06:27:00,39.7,35.0,32.16,SE,130,0.0,0.0,83,0.00,NA,NA,-99.99,wxupload 3.4,2013-01-12 11:27:00,
2013-01-12 06:33:00,39.7,35.0,32.16,SE,130,0.0,0.0,83,0.00,NA,NA,-99.99,wxupload 3.4,2013-01-12 11:33:00,
2013-01-12 06:39:00,39.9,35.2,32.16,SE,129,0.0,0.0,83,0.00,NA,NA,-99.99,wxupload 3.4,2013-01-12 11:39:00,
2013-01-12 06:45:00,40.1,35.4,32.16,SE,130,0.0,0.0,83,0.00,NA,NA,-99.99,wxupload 3.4,2013-01-12 11:45:00,
2013-01-12 06:52:00,39.9,35.2,32.16,SE,130,0.0,0.0,83,0.00,NA,NA,-99.99,wxupload 3.4,2013-01-12 11:52:00,
2013-01-12 06:57:00,39.7,35.0,32.16,SE,130,0.0,0.0,83,0.00,NA,NA,-99.99,wxupload 3.4,2013-01-12 11:57:00,
2013-01-12 07:03:00,39.7,35.0,32.16,SE,130,0.0,0.0,83,0.00,NA,NA,-99.99,wxupload 3.4,2013-01-12 12:03:00,
2013-01-12 07:09:00,39.9,35.2,32.16,SE,130,0.0,0.0,83,0.00,NA,NA,-99.99,wxupload 3.4,2013-01-12 12:09:00,
2013-01-12 07:15:00,39.9,35.5,32.16,SE,130,0.0,0.0,84,0.00,NA,NA,-99.99,wxupload 3.4,2013-01-12 12:15:00,
2013-01-12 07:22:00,39.9,35.2,32.16,SE,130,0.0,0.0,83,0.00,NA,NA,-99.99,wxupload 3.4,2013-01-12 12:22:00,
2013-01-12 07:27:00,39.7,35.0,32.16,SE,130,0.0,0.0,83,0.00,NA,NA,-99.99,wxupload 3.4,2013-01-12 12:27:00,
2013-01-12 07:34:00,40.1,35.7,32.19,SE,130,0.0,0.0,84,0.00,NA,NA,-99.99,wxupload 3.4,2013-01-12 12:34:00,
2013-01-12 07:39:00,40.1,35.7,32.19,SE,130,0.0,0.0,84,0.00,NA,NA,-99.99,wxupload 3.4,2013-01-12 12:39:00,
2013-01-12 07:45:00,39.9,35.5,32.19,SE,130,0.0,0.0,84,0.00,NA,NA,-99.99,wxupload 3.4,2013-01-12 12:45:00,
2013-01-12 07:51:00,39.9,35.5,32.19,SE,130,0.0,0.0,84,0.00,NA,NA,-99.99,wxupload 3.4,2013-01-12 12:51:00,
2013-01-12 07:57:00,39.9,35.5,32.19,SE,130,0.0,0.0,84,0.00,NA,NA,-99.99,wxupload 3.4,2013-01-12 12:57:00,
2013-01-12 08:04:00,40.1,35.7,32.19,SE,130,0.0,0.0,84,0.00,NA,NA,-99.99,wxupload 3.4,2013-01-12 13:04:00,
2013-01-12 08:09:00,40.3,35.8,32.19,SE,130,0.0,0.0,84,0.00,NA,NA,-99.99,wxupload 3.4,2013-01-12 13:09:00,
2013-01-12 08:16:00,40.3,35.8,32.19,SE,130,0.0,0.0,84,0.00,NA,NA,-99.99,wxupload 3.4,2013-01-12 13:16:00,
2013-01-12 08:21:00,40.5,36.0,32.19,SE,130,0.0,0.0,84,0.00,NA,NA,-99.99,wxupload 3.4,2013-01-12 13:21:00,
2013-01-12 08:27:00,40.5,36.0,32.19,SE,130,0.0,0.0,84,0.00,NA,NA,-99.99,wxupload 3.4,2013-01-12 13:27:00,
2013-01-12 08:34:00,40.8,36.7,32.19,SE,130,0.0,0.0,85,0.00,NA,NA,-99.99,wxupload 3.4,2013-01-12 13:34:00,
2013-01-12 08:39:00,41.0,36.6,32.19,SE,130,0.0,0.0,84,0.00,NA,NA,-99.99,wxupload 3.4,2013-01-12 13:39:00,
2013-01-12 08:46:00,41.4,37.2,32.19,SE,130,0.0,0.0,85,0.00,NA,NA,-99.99,wxupload 3.4,2013-01-12 13:46:00,
2013-01-12 08:51:00,41.5,37.4,32.19,SE,130,0.0,0.0,85,0.00,NA,NA,-99.99,wxupload 3.4,2013-01-12 13:51:00,
2013-01-12 08:57:00,41.7,37.6,32.19,SE,130,0.0,0.0,85,0.00,NA,NA,-99.99,wxupload 3.4,2013-01-12 13:57:00,
2013-01-12 09:03:00,41.9,37.7,32.19,SE,130,0.0,0.0,85,0.00,NA,NA,-99.99,wxupload 3.4,2013-01-12 14:03:00,
2013-01-12 09:09:00,42.3,38.1,32.19,SE,130,0.0,0.0,85,0.00,NA,NA,-99.99,wxupload 3.4,2013-01-12 14:09:00,
2013-01-12 09:16:00,42.4,38.3,32.19,SE,130,0.0,0.0,85,0.00,NA,NA,-99.99,wxupload 3.4,2013-01-12 14:16:00,
2013-01-12 09:21:00,42.8,38.6,32.19,SSE,149,0.0,0.0,85,0.00,NA,NA,-99.99,wxupload 3.4,2013-01-12 14:21:00,
2013-01-12 09:28:00,43.2,39.0,32.19,South,188,0.0,0.0,85,0.00,NA,NA,-99.99,wxupload 3.4,2013-01-12 14:28:00,
2013-01-12 09:33:00,43.3,39.2,32.19,South,188,0.0,0.0,85,0.00,NA,NA,-99.99,wxupload 3.4,2013-01-12 14:33:00,
2013-01-12 09:39:00,43.3,39.2,32.19,South,188,0.0,0.0,85,0.00,NA,NA,-99.99,wxupload 3.4,2013-01-12 14:39:00,
2013-01-12 09:46:00,43.5,39.6,32.19,South,188,0.0,0.0,86,0.00,NA,NA,-99.99,wxupload 3.4,2013-01-12 14:46:00,
2013-01-12 09:51:00,43.9,40.0,32.19,South,188,0.0,0.0,86,0.00,NA,NA,-99.99,wxupload 3.4,2013-01-12 14:51:00,
2013-01-12 09:58:00,44.2,40.3,32.19,South,188,0.0,0.0,86,0.00,NA,NA,-99.99,wxupload 3.4,2013-01-12 14:58:00,
2013-01-12 10:03:00,44.4,40.5,32.19,South,188,0.0,0.0,86,0.00,NA,NA,-99.99,wxupload 3.4,2013-01-12 15:03:00,
2013-01-12 10:09:00,44.6,40.7,32.19,South,188,0.0,0.0,86,0.00,NA,NA,-99.99,wxupload 3.4,2013-01-12 15:09:00,
2013-01-12 10:16:00,45.0,41.1,32.19,South,188,0.0,0.0,86,0.00,NA,NA,-99.99,wxupload 3.4,2013-01-12 15:16:00,
2013-01-12 10:21:00,45.1,41.2,32.19,South,188,0.0,0.0,86,0.00,NA,NA,-99.99,wxupload 3.4,2013-01-12 15:21:00,
2013-01-12 10:28:00,45.1,41.2,32.19,South,188,0.0,0.0,86,0.00,NA,NA,-99.99,wxupload 3.4,2013-01-12 15:28:00,
2013-01-12 10:33:00,45.3,41.4,32.19,South,188,0.0,0.0,86,0.00,NA,NA,-99.99,wxupload 3.4,2013-01-12 15:33:00,
2013-01-12 10:39:00,45.5,41.6,32.19,South,188,0.0,0.0,86,0.00,NA,NA,-99.99,wxupload 3.4,2013-01-12 15:39:00,
2013-01-12 10:45:00,46.0,42.4,32.19,South,188,0.0,0.0,87,0.00,NA,NA,-99.99,wxupload 3.4,2013-01-12 15:45:00,
2013-01-12 10:51:00,46.0,42.1,32.19,South,188,0.0,0.0,86,0.00,NA,NA,-99.99,wxupload 3.4,2013-01-12 15:51:00,
2013-01-12 10:58:00,46.4,42.5,32.19,SSE,154,0.0,0.0,86,0.00,NA,NA,-99.99,wxupload 3.4,2013-01-12 15:58:00,
2013-01-12 11:03:00,46.6,42.6,32.19,SSE,154,0.0,0.0,86,0.00,NA,NA,-99.99,wxupload 3.4,2013-01-12 16:03:00,
2013-01-12 11:10:00,46.6,42.6,32.19,SE,128,0.0,0.0,86,0.00,NA,NA,-99.99,wxupload 3.4,2013-01-12 16:10:00,
2013-01-12 11:15:00,46.8,42.8,32.19,SSE,152,0.0,0.0,86,0.00,NA,NA,-99.99,wxupload 3.4,2013-01-12 16:15:00,
2013-01-12 11:21:00,47.1,43.2,32.19,SSE,151,0.0,0.0,86,0.00,NA,NA,-99.99,wxupload 3.4,2013-01-12 16:21:00,
2013-01-12 11:28:00,47.7,44.0,32.19,SSE,151,0.0,0.0,87,0.00,NA,NA,-99.99,wxupload 3.4,2013-01-12 16:28:00,
2013-01-12 11:33:00,48.0,44.4,32.19,SSE,151,0.0,0.0,87,0.00,NA,NA,-99.99,wxupload 3.4,2013-01-12 16:33:00,
2013-01-12 11:40:00,48.4,44.7,32.19,SSE,151,0.0,0.0,87,0.00,NA,NA,-99.99,wxupload 3.4,2013-01-12 16:40:00,
2013-01-12 11:45:00,48.6,44.6,32.19,SSE,151,0.0,0.0,86,0.00,NA,NA,-99.99,wxupload 3.4,2013-01-12 16:45:00,
2013-01-12 11:51:00,49.1,45.4,32.16,SSE,159,0.0,0.0,87,0.00,NA,NA,-99.99,wxupload 3.4,2013-01-12 16:51:00,
2013-01-12 11:58:00,49.1,45.1,32.16,SSE,159,0.0,0.0,86,0.00,NA,NA,-99.99,wxupload 3.4,2013-01-12 16:58:00,
2013-01-12 12:03:00,49.6,46.0,32.16,SSE,159,0.0,0.0,87,0.00,NA,NA,-99.99,wxupload 3.4,2013-01-12 17:03:00,
2013-01-12 12:10:00,50.0,46.3,32.16,SE,128,0.0,0.0,87,0.00,NA,NA,-99.99,wxupload 3.4,2013-01-12 17:10:00,
2013-01-12 12:15:00,50.0,46.0,32.16,SE,128,0.0,0.0,86,0.00,NA,NA,-99.99,wxupload 3.4,2013-01-12 17:15:00,
2013-01-12 12:22:00,49.8,45.8,32.16,SE,128,0.0,0.0,86,0.00,NA,NA,-99.99,wxupload 3.4,2013-01-12 17:22:00,
2013-01-12 12:27:00,50.2,46.2,32.16,SE,128,0.0,0.0,86,0.00,NA,NA,-99.99,wxupload 3.4,2013-01-12 17:27:00,
2013-01-12 12:33:00,50.2,46.2,32.16,SE,128,0.0,0.0,86,0.00,NA,NA,-99.99,wxupload 3.4,2013-01-12 17:33:00,
2013-01-12 12:40:00,50.4,46.4,32.16,SE,128,0.0,0.0,86,0.00,NA,NA,-99.99,wxupload 3.4,2013-01-12 17:40:00,
2013-01-12 12:45:00,50.5,46.5,32.16,SE,128,0.0,0.0,86,0.00,NA,NA,-99.99,wxupload 3.4,2013-01-12 17:45:00,
2013-01-12 12:52:00,50.7,46.7,32.16,ESE,108,0.0,3.0,86,0.00,NA,NA,-99.99,wxupload 3.4,2013-01-12 17:52:00,
2013-01-12 12:57:00,51.1,47.1,32.16,SE,144,0.0,0.0,86,0.00,NA,NA,-99.99,wxupload 3.4,2013-01-12 17:57:00,
2013-01-12 13:03:00,51.4,47.7,32.16,SE,144,0.0,0.0,87,0.00,NA,NA,-99.99,wxupload 3.4,2013-01-12 18:03:00,
2013-01-12 13:10:00,51.8,47.8,32.16,SE,126,0.0,0.0,86,0.00,NA,NA,-99.99,wxupload 3.4,2013-01-12 18:10:00,
2013-01-12 13:15:00,52.0,48.0,32.16,SE,124,0.0,0.0,86,0.00,NA,NA,-99.99,wxupload 3.4,2013-01-12 18:15:00,
2013-01-12 13:22:00,52.3,48.3,32.13,East,88,0.0,0.0,86,0.00,NA,NA,-99.99,wxupload 3.4,2013-01-12 18:22:00,
2013-01-12 13:27:00,52.9,48.8,32.13,ESE,114,0.0,0.0,86,0.00,NA,NA,-99.99,wxupload 3.4,2013-01-12 18:27:00,
2013-01-12 13:34:00,52.9,48.8,32.13,ESE,112,0.0,0.0,86,0.00,NA,NA,-99.99,wxupload 3.4,2013-01-12 18:34:00,
2013-01-12 13:39:00,52.9,48.5,32.13,ESE,112,0.0,0.0,85,0.00,NA,NA,-99.99,wxupload 3.4,2013-01-12 18:39:00,
2013-01-12 13:45:00,53.1,48.7,32.13,ESE,112,0.0,0.0,85,0.00,NA,NA,-99.99,wxupload 3.4,2013-01-12 18:45:00,
2013-01-12 13:52:00,53.6,49.2,32.13,ESE,104,0.0,0.0,85,0.00,NA,NA,-99.99,wxupload 3.4,2013-01-12 18:52:00,
2013-01-12 13:57:00,53.6,48.9,32.13,ESE,120,0.0,3.0,84,0.00,NA,NA,-99.99,wxupload 3.4,2013-01-12 18:57:00,
2013-01-12 14:04:00,53.2,48.6,32.13,SE,128,0.0,3.0,84,0.00,NA,NA,-99.99,wxupload 3.4,2013-01-12 19:04:00,
2013-01-12 14:09:00,53.1,48.4,32.13,East,101,0.0,3.0,84,0.00,NA,NA,-99.99,wxupload 3.4,2013-01-12 19:09:00,
2013-01-12 14:15:00,52.9,48.2,32.13,East,101,0.0,0.0,84,0.00,NA,NA,-99.99,wxupload 3.4,2013-01-12 19:15:00,
2013-01-12 14:22:00,52.7,47.7,32.13,SE,127,0.0,0.0,83,0.00,NA,NA,-99.99,wxupload 3.4,2013-01-12 19:22:00,
2013-01-12 14:27:00,52.3,47.4,32.13,SE,129,0.0,3.0,83,0.00,NA,NA,-99.99,wxupload 3.4,2013-01-12 19:27:00,
2013-01-12 14:34:00,52.3,47.4,32.13,East,95,0.0,0.0,83,0.00,NA,NA,-99.99,wxupload 3.4,2013-01-12 19:34:00,
2013-01-12 14:39:00,52.5,47.6,32.13,East,95,0.0,0.0,83,0.00,NA,NA,-99.99,wxupload 3.4,2013-01-12 19:39:00,
2013-01-12 14:46:00,52.5,47.6,32.13,SE,132,0.0,2.0,83,0.00,NA,NA,-99.99,wxupload 3.4,2013-01-12 19:46:00,
2013-01-12 14:51:00,52.7,47.7,32.13,SSE,163,0.0,0.0,83,0.00,NA,NA,-99.99,wxupload 3.4,2013-01-12 19:51:00,
2013-01-12 14:57:00,52.7,47.4,32.13,ESE,118,0.0,0.0,82,0.00,NA,NA,-99.99,wxupload 3.4,2013-01-12 19:57:00,
2013-01-12 15:04:00,52.7,47.4,32.13,South,175,0.0,4.0,82,0.00,NA,NA,-99.99,wxupload 3.4,2013-01-12 20:04:00,
2013-01-12 15:09:00,52.5,47.2,32.13,South,178,0.0,0.0,82,0.00,NA,NA,-99.99,wxupload 3.4,2013-01-12 20:09:00,
2013-01-12 15:16:00,52.7,47.4,32.13,South,178,0.0,0.0,82,0.00,NA,NA,-99.99,wxupload 3.4,2013-01-12 20:16:00,
2013-01-12 15:21:00,52.7,47.4,32.13,South,171,0.0,3.0,82,0.00,NA,NA,-99.99,wxupload 3.4,2013-01-12 20:21:00,
2013-01-12 15:28:00,52.7,47.1,32.13,South,171,0.0,0.0,81,0.00,NA,NA,-99.99,wxupload 3.4,2013-01-12 20:28:00,
2013-01-12 15:33:00,52.9,47.3,32.16,South,174,0.0,0.0,81,0.00,NA,NA,-99.99,wxupload 3.4,2013-01-12 20:33:00,
2013-01-12 15:39:00,52.7,47.1,32.16,SSE,151,0.0,0.0,81,0.00,NA,NA,-99.99,wxupload 3.4,2013-01-12 20:39:00,
2013-01-12 15:46:00,52.5,46.6,32.16,South,174,0.0,0.0,80,0.00,NA,NA,-99.99,wxupload 3.4,2013-01-12 20:46:00,
2013-01-12 15:51:00,52.3,46.4,32.16,South,173,0.0,0.0,80,0.00,NA,NA,-99.99,wxupload 3.4,2013-01-12 20:51:00,
2013-01-12 15:58:00,52.0,45.7,32.16,SSE,168,0.0,0.0,79,0.00,NA,NA,-99.99,wxupload 3.4,2013-01-12 20:58:00,
2013-01-12 16:03:00,51.6,45.4,32.16,SSE,168,0.0,0.0,79,0.00,NA,NA,-99.99,wxupload 3.4,2013-01-12 21:03:00,
2013-01-12 16:10:00,51.3,45.0,32.16,South,175,0.0,0.0,79,0.00,NA,NA,-99.99,wxupload 3.4,2013-01-12 21:10:00,
2013-01-12 16:16:00,50.9,44.7,32.16,South,174,0.0,0.0,79,0.00,NA,NA,-99.99,wxupload 3.4,2013-01-12 21:16:00,
2013-01-12 16:21:00,50.7,44.5,32.16,South,174,0.0,0.0,79,0.00,NA,NA,-99.99,wxupload 3.4,2013-01-12 21:21:00,
2013-01-12 16:28:00,50.4,44.1,32.16,SE,137,0.0,0.0,79,0.00,NA,NA,-99.99,wxupload 3.4,2013-01-12 21:28:00,
2013-01-12 16:33:00,50.2,44.0,32.16,SE,137,0.0,0.0,79,0.00,NA,NA,-99.99,wxupload 3.4,2013-01-12 21:33:00,
2013-01-12 16:40:00,50.0,43.5,32.16,SE,128,0.0,0.0,78,0.00,NA,NA,-99.99,wxupload 3.4,2013-01-12 21:40:00,
2013-01-12 16:45:00,50.2,44.0,32.16,SE,128,0.0,0.0,79,0.00,NA,NA,-99.99,wxupload 3.4,2013-01-12 21:45:00,
2013-01-12 16:51:00,50.2,44.0,32.16,SE,128,0.0,0.0,79,0.00,NA,NA,-99.99,wxupload 3.4,2013-01-12 21:51:00,
2013-01-12 16:58:00,50.5,44.3,32.16,SE,128,0.0,0.0,79,0.00,NA,NA,-99.99,wxupload 3.4,2013-01-12 21:58:00,
2013-01-12 17:03:00,50.5,44.3,32.16,SE,128,0.0,0.0,79,0.00,NA,NA,-99.99,wxupload 3.4,2013-01-12 22:03:00,
2013-01-12 17:10:00,50.2,43.6,32.16,ESE,120,0.0,0.0,78,0.00,NA,NA,-99.99,wxupload 3.4,2013-01-12 22:10:00,
2013-01-12 17:15:00,49.6,43.1,32.16,ESE,120,0.0,0.0,78,0.00,NA,NA,-99.99,wxupload 3.4,2013-01-12 22:15:00,
2013-01-12 17:22:00,49.3,42.8,32.16,ESE,120,0.0,0.0,78,0.00,NA,NA,-99.99,wxupload 3.4,2013-01-12 22:22:00,
2013-01-12 17:27:00,48.7,42.2,32.16,ESE,120,0.0,0.0,78,0.00,NA,NA,-99.99,wxupload 3.4,2013-01-12 22:27:00,
2013-01-12 17:33:00,48.4,41.9,32.16,ESE,120,0.0,0.0,78,0.00,NA,NA,-99.99,wxupload 3.4,2013-01-12 22:33:00,
2013-01-12 17:40:00,48.6,42.4,32.16,ESE,120,0.0,0.0,79,0.00,NA,NA,-99.99,wxupload 3.4,2013-01-12 22:40:00,
2013-01-12 17:45:00,48.4,41.9,32.16,ESE,120,0.0,0.0,78,0.00,NA,NA,-99.99,wxupload 3.4,2013-01-12 22:45:00,
2013-01-12 17:52:00,48.0,41.5,32.16,ESE,120,0.0,0.0,78,0.00,NA,NA,-99.99,wxupload 3.4,2013-01-12 22:52:00,
2013-01-12 17:57:00,47.7,41.2,32.16,ESE,120,0.0,0.0,78,0.00,NA,NA,-99.99,wxupload 3.4,2013-01-12 22:57:00,
2013-01-12 18:04:00,47.3,40.8,32.16,ESE,120,0.0,0.0,78,0.00,NA,NA,-99.99,wxupload 3.4,2013-01-12 23:04:00,
2013-01-12 18:10:00,47.1,40.7,32.16,ESE,120,0.0,0.0,78,0.00,NA,NA,-99.99,wxupload 3.4,2013-01-12 23:10:00,
2013-01-12 18:15:00,46.9,40.2,32.16,ESE,120,0.0,0.0,77,0.00,NA,NA,-99.99,wxupload 3.4,2013-01-12 23:15:00,
2013-01-12 18:22:00,46.8,40.0,32.16,ESE,120,0.0,0.0,77,0.00,NA,NA,-99.99,wxupload 3.4,2013-01-12 23:22:00,
2013-01-12 18:27:00,46.6,39.8,32.16,ESE,120,0.0,0.0,77,0.00,NA,NA,-99.99,wxupload 3.4,2013-01-12 23:27:00,
2013-01-12 18:34:00,46.4,39.6,32.16,ESE,120,0.0,0.0,77,0.00,NA,NA,-99.99,wxupload 3.4,2013-01-12 23:34:00,
2013-01-12 18:39:00,46.2,39.5,32.16,ESE,120,0.0,0.0,77,0.00,NA,NA,-99.99,wxupload 3.4,2013-01-12 23:39:00,
2013-01-12 18:45:00,46.0,39.3,32.16,ESE,120,0.0,0.0,77,0.00,NA,NA,-99.99,wxupload 3.4,2013-01-12 23:45:00,
2013-01-12 18:52:00,45.7,38.9,32.16,ESE,120,0.0,0.0,77,0.00,NA,NA,-99.99,wxupload 3.4,2013-01-12 23:52:00,
2013-01-12 18:57:00,45.5,38.8,32.16,ESE,120,0.0,0.0,77,0.00,NA,NA,-99.99,wxupload 3.4,2013-01-12 23:57:00,
2013-01-12 19:04:00,45.3,38.6,32.16,ESE,120,0.0,0.0,77,0.00,NA,NA,-99.99,wxupload 3.4,2013-01-13 00:04:00,
2013-01-12 19:09:00,45.1,38.4,32.16,ESE,120,0.0,0.0,77,0.00,NA,NA,-99.99,wxupload 3.4,2013-01-13 00:09:00,
2013-01-12 19:16:00,44.8,38.0,32.16,ESE,120,0.0,0.0,77,0.00,NA,NA,-99.99,wxupload 3.4,2013-01-13 00:16:00,
2013-01-12 19:21:00,44.4,37.7,32.16,ESE,120,0.0,0.0,77,0.00,NA,NA,-99.99,wxupload 3.4,2013-01-13 00:21:00,
2013-01-12 19:28:00,43.9,36.8,32.16,ESE,120,0.0,0.0,76,0.00,NA,NA,-99.99,wxupload 3.4,2013-01-13 00:28:00,
2013-01-12 19:33:00,43.7,37.0,32.16,ESE,120,0.0,0.0,77,0.00,NA,NA,-99.99,wxupload 3.4,2013-01-13 00:33:00,
2013-01-12 19:39:00,43.5,36.8,32.16,ESE,120,0.0,0.0,77,0.00,NA,NA,-99.99,wxupload 3.4,2013-01-13 00:39:00,
2013-01-12 19:46:00,43.3,36.6,32.16,ESE,120,0.0,0.0,77,0.00,NA,NA,-99.99,wxupload 3.4,2013-01-13 00:46:00,
2013-01-12 19:51:00,43.2,36.1,32.16,ESE,120,0.0,0.0,76,0.00,NA,NA,-99.99,wxupload 3.4,2013-01-13 00:51:00,
2013-01-12 19:58:00,42.8,35.8,32.16,ESE,120,0.0,0.0,76,0.00,NA,NA,-99.99,wxupload 3.4,2013-01-13 00:58:00,
2013-01-12 20:03:00,42.6,35.9,32.16,ESE,120,0.0,0.0,77,0.00,NA,NA,-99.99,wxupload 3.4,2013-01-13 01:03:00,
2013-01-12 20:10:00,42.8,36.1,32.16,ESE,120,0.0,0.0,77,0.00,NA,NA,-99.99,wxupload 3.4,2013-01-13 01:10:00,
2013-01-12 20:16:00,42.3,35.3,32.16,ESE,120,0.0,0.0,76,0.00,NA,NA,-99.99,wxupload 3.4,2013-01-13 01:16:00,
2013-01-12 20:21:00,42.1,35.4,32.16,ESE,120,0.0,0.0,77,0.00,NA,NA,-99.99,wxupload 3.4,2013-01-13 01:21:00,
2013-01-12 20:28:00,42.3,35.6,32.16,ESE,120,0.0,0.0,77,0.00,NA,NA,-99.99,wxupload 3.4,2013-01-13 01:28:00,
2013-01-12 20:33:00,42.1,35.4,32.13,ESE,120,0.0,0.0,77,0.00,NA,NA,-99.99,wxupload 3.4,2013-01-13 01:33:00,
2013-01-12 20:40:00,41.5,34.6,32.13,ESE,120,0.0,0.0,76,0.00,NA,NA,-99.99,wxupload 3.4,2013-01-13 01:40:00,
2013-01-12 20:45:00,41.5,34.6,32.13,ESE,120,0.0,0.0,76,0.00,NA,NA,-99.99,wxupload 3.4,2013-01-13 01:45:00,
2013-01-12 20:52:00,41.4,34.4,32.16,ESE,120,0.0,0.0,76,0.00,NA,NA,-99.99,wxupload 3.4,2013-01-13 01:52:00,
2013-01-12 20:58:00,41.5,34.9,32.16,ESE,120,0.0,0.0,77,0.00,NA,NA,-99.99,wxupload 3.4,2013-01-13 01:58:00,
2013-01-12 21:03:00,41.4,34.7,32.16,ESE,120,0.0,0.0,77,0.00,NA,NA,-99.99,wxupload 3.4,2013-01-13 02:03:00,
2013-01-12 21:10:00,41.5,34.9,32.16,ESE,120,0.0,0.0,77,0.00,NA,NA,-99.99,wxupload 3.4,2013-01-13 02:10:00,
2013-01-12 21:15:00,41.7,35.1,32.16,ESE,120,0.0,0.0,77,0.00,NA,NA,-99.99,wxupload 3.4,2013-01-13 02:15:00,
2013-01-12 21:22:00,41.7,35.1,32.16,ESE,120,0.0,0.0,77,0.00,NA,NA,-99.99,wxupload 3.4,2013-01-13 02:22:00,
2013-01-12 21:27:00,42.1,35.4,32.16,ESE,120,0.0,0.0,77,0.00,NA,NA,-99.99,wxupload 3.4,2013-01-13 02:27:00,
2013-01-12 21:34:00,42.1,35.4,32.16,ESE,120,0.0,0.0,77,0.00,NA,NA,-99.99,wxupload 3.4,2013-01-13 02:34:00,
2013-01-12 21:40:00,42.3,35.9,32.16,ESE,120,0.0,0.0,78,0.00,NA,NA,-99.99,wxupload 3.4,2013-01-13 02:40:00,
2013-01-12 21:45:00,42.1,35.4,32.16,ESE,120,0.0,0.0,77,0.00,NA,NA,-99.99,wxupload 3.4,2013-01-13 02:45:00,
2013-01-12 21:52:00,42.3,35.9,32.16,ESE,120,0.0,0.0,78,0.00,NA,NA,-99.99,wxupload 3.4,2013-01-13 02:52:00,
2013-01-12 21:57:00,42.4,36.1,32.16,ESE,120,0.0,0.0,78,0.00,NA,NA,-99.99,wxupload 3.4,2013-01-13 02:57:00,
2013-01-12 22:04:00,42.4,36.1,32.16,ESE,120,0.0,0.0,78,0.00,NA,NA,-99.99,wxupload 3.4,2013-01-13 03:04:00,
2013-01-12 22:09:00,42.3,35.9,32.16,ESE,120,0.0,0.0,78,0.00,NA,NA,-99.99,wxupload 3.4,2013-01-13 03:09:00,
2013-01-12 22:16:00,42.3,35.9,32.16,ESE,120,0.0,0.0,78,0.00,NA,NA,-99.99,wxupload 3.4,2013-01-13 03:16:00,
2013-01-12 22:22:00,42.3,35.9,32.16,ESE,120,0.0,0.0,78,0.00,NA,NA,-99.99,wxupload 3.4,2013-01-13 03:22:00,
2013-01-12 22:27:00,42.1,35.7,32.16,South,182,0.0,0.0,78,0.00,NA,NA,-99.99,wxupload 3.4,2013-01-13 03:27:00,
2013-01-12 22:34:00,41.5,35.2,32.16,South,182,0.0,0.0,78,0.00,NA,NA,-99.99,wxupload 3.4,2013-01-13 03:34:00,
2013-01-12 22:39:00,41.4,35.0,32.16,South,182,0.0,0.0,78,0.00,NA,NA,-99.99,wxupload 3.4,2013-01-13 03:39:00,
2013-01-12 22:46:00,41.5,35.5,32.16,South,182,0.0,0.0,79,0.00,NA,NA,-99.99,wxupload 3.4,2013-01-13 03:46:00,
2013-01-12 22:51:00,41.4,35.0,32.16,South,182,0.0,0.0,78,0.00,NA,NA,-99.99,wxupload 3.4,2013-01-13 03:51:00,
2013-01-12 22:58:00,41.2,34.9,32.16,South,182,0.0,0.0,78,0.00,NA,NA,-99.99,wxupload 3.4,2013-01-13 03:58:00,
2013-01-12 23:04:00,41.2,35.2,32.16,South,182,0.0,0.0,79,0.00,NA,NA,-99.99,wxupload 3.4,2013-01-13 04:04:00,
2013-01-12 23:09:00,41.4,35.4,32.16,South,182,0.0,0.0,79,0.00,NA,NA,-99.99,wxupload 3.4,2013-01-13 04:09:00,
2013-01-12 23:16:00,41.5,35.5,32.16,South,182,0.0,0.0,79,0.00,NA,NA,-99.99,wxupload 3.4,2013-01-13 04:16:00,
2013-01-12 23:21:00,41.5,35.5,32.16,South,182,0.0,0.0,79,0.00,NA,NA,-99.99,wxupload 3.4,2013-01-13 04:21:00,
2013-01-12 23:28:00,41.7,35.7,32.16,South,182,0.0,0.0,79,0.00,NA,NA,-99.99,wxupload 3.4,2013-01-13 04:28:00,
2013-01-12 23:33:00,41.7,35.7,32.13,South,182,0.0,0.0,79,0.00,NA,NA,-99.99,wxupload 3.4,2013-01-13 04:33:00,
2013-01-12 23:40:00,41.7,35.7,32.13,South,182,0.0,0.0,79,0.00,NA,NA,-99.99,wxupload 3.4,2013-01-13 04:40:00,
2013-01-12 23:46:00,41.7,35.7,32.13,South,182,0.0,0.0,79,0.00,NA,NA,-99.99,wxupload 3.4,2013-01-13 04:46:00,
2013-01-12 23:51:00,41.7,36.0,32.13,South,182,0.0,0.0,80,0.00,NA,NA,-99.99,wxupload 3.4,2013-01-13 04:51:00,
2013-01-12 23:58:00,41.5,35.5,32.13,South,182,0.0,0.0,79,0.00,NA,NA,-99.99,wxupload 3.4,2013-01-13 04:58:00,